createdAt,value
2019-02-17T00:02:26.445Z,11.67
2019-02-17T00:06:32.412Z,12.87
2019-02-17T00:10:37.313Z,11.90
2019-02-17T00:14:42.218Z,10.93
2019-02-17T00:18:47.862Z,11.50
2019-02-17T00:22:52.770Z,11.73
2019-02-17T00:26:57.670Z,13.00
2019-02-17T00:31:02.570Z,13.73
2019-02-17T00:35:09.013Z,11.70
2019-02-17T00:39:13.914Z,11.20
2019-02-17T00:43:18.835Z,11.33
2019-02-17T00:47:23.733Z,10.37
2019-02-17T00:51:28.633Z,11.57
2019-02-17T00:55:33.541Z,10.83
2019-02-17T00:59:38.439Z,12.17
2019-02-17T01:03:43.346Z,10.93
2019-02-17T01:07:48.238Z,10.03
2019-02-17T01:11:53.141Z,10.87
2019-02-17T01:15:58.048Z,14.23
2019-02-17T01:20:02.952Z,15.50
2019-02-17T01:24:07.857Z,12.67
2019-02-17T01:28:12.745Z,13.47
2019-02-17T01:32:17.644Z,20.23
2019-02-17T01:36:22.551Z,18.93
2019-02-17T01:40:27.452Z,18.20
2019-02-17T01:44:32.361Z,16.37
2019-02-17T01:48:37.281Z,13.43
2019-02-17T01:52:42.154Z,14.50
2019-02-17T01:56:47.055Z,13.63
2019-02-17T02:00:51.978Z,14.03
2019-02-17T02:04:56.877Z,13.60
2019-02-17T02:09:01.775Z,13.27
2019-02-17T02:13:06.744Z,13.03
2019-02-17T02:17:11.649Z,13.53
2019-02-17T02:21:16.556Z,12.17
2019-02-17T02:25:21.454Z,12.07
2019-02-17T02:29:26.348Z,11.93
2019-02-17T02:33:31.248Z,11.70
2019-02-17T02:37:36.163Z,11.30
2019-02-17T02:41:41.056Z,13.43
2019-02-17T02:45:45.956Z,11.67
2019-02-17T02:49:50.870Z,10.83
2019-02-17T02:53:56.747Z,12.60
2019-02-17T02:58:01.652Z,16.47
2019-02-17T03:02:06.553Z,19.83
2019-02-17T03:06:13.265Z,19.67
2019-02-17T03:10:18.157Z,17.13
2019-02-17T03:14:23.059Z,16.07
2019-02-17T03:18:27.978Z,13.80
2019-02-17T03:22:32.887Z,14.33
2019-02-17T03:26:37.786Z,15.27
2019-02-17T03:30:42.678Z,14.73
2019-02-17T03:34:48.552Z,13.83
2019-02-17T03:38:53.454Z,13.77
2019-02-17T03:42:58.350Z,14.33
2019-02-17T03:47:03.255Z,14.27
2019-02-17T03:51:08.142Z,14.00
2019-02-17T03:55:13.045Z,13.63
2019-02-17T03:59:17.955Z,12.87
2019-02-17T04:03:22.857Z,14.87
2019-02-17T04:07:28.736Z,14.13
2019-02-17T04:11:33.637Z,13.67
2019-02-17T04:15:38.544Z,13.27
2019-02-17T04:19:43.433Z,12.83
2019-02-17T04:23:48.338Z,12.17
2019-02-17T04:27:53.231Z,11.67
2019-02-17T04:31:58.133Z,13.40
2019-02-17T04:36:03.033Z,12.07
2019-02-17T04:40:07.938Z,12.10
2019-02-17T04:44:12.849Z,13.00
2019-02-17T04:48:17.738Z,12.43
2019-02-17T04:52:22.648Z,12.43
2019-02-17T04:56:27.548Z,12.83
2019-02-17T05:00:39.532Z,12.43
2019-02-17T05:04:39.080Z,12.37
2019-02-17T05:08:43.955Z,13.67
2019-02-17T05:12:48.859Z,11.87
2019-02-17T05:16:53.751Z,11.70
2019-02-17T05:20:58.704Z,14.83
2019-02-17T05:25:03.729Z,15.03
2019-02-17T05:29:09.688Z,15.87
2019-02-17T05:33:14.589Z,14.53
2019-02-17T05:37:19.489Z,16.43
2019-02-17T05:41:24.393Z,16.13
2019-02-17T05:45:29.302Z,16.03
2019-02-17T05:49:34.186Z,16.13
2019-02-17T05:53:39.095Z,15.97
2019-02-17T05:57:43.995Z,15.50
2019-02-17T06:01:48.895Z,16.17
2019-02-17T06:05:53.797Z,15.83
2019-02-17T06:09:58.700Z,17.60
2019-02-17T06:14:04.561Z,15.70
2019-02-17T06:18:09.735Z,17.17
2019-02-17T06:22:14.633Z,17.60
2019-02-17T06:26:19.527Z,15.67
2019-02-17T06:30:24.432Z,17.63
2019-02-17T06:34:29.325Z,16.50
2019-02-17T06:38:34.230Z,16.80
2019-02-17T06:42:39.134Z,15.93
2019-02-17T06:46:45.671Z,16.03
2019-02-17T06:50:50.578Z,15.83
2019-02-17T06:54:59.878Z,13.93
2019-02-17T06:59:04.788Z,13.30
2019-02-17T07:03:09.696Z,13.37
2019-02-17T07:07:14.614Z,13.37
2019-02-17T07:11:19.546Z,13.37
2019-02-17T07:15:24.389Z,13.13
2019-02-17T07:19:29.285Z,15.10
2019-02-17T07:23:34.188Z,13.27
2019-02-17T07:27:39.096Z,15.00
2019-02-17T07:31:44.008Z,13.43
2019-02-17T07:35:48.902Z,15.30
2019-02-17T07:39:53.801Z,15.13
2019-02-17T07:43:58.709Z,15.10
2019-02-17T07:48:03.612Z,15.80
2019-02-17T07:52:08.520Z,13.85
2019-02-17T07:56:13.414Z,16.23
2019-02-17T08:00:18.321Z,16.23
2019-02-17T08:04:23.248Z,16.13
2019-02-17T08:08:28.148Z,15.57
2019-02-17T08:12:33.044Z,15.23
2019-02-17T08:16:37.952Z,17.07
2019-02-17T08:20:42.864Z,16.70
2019-02-17T08:24:47.777Z,17.23
2019-02-17T08:28:52.683Z,15.23
2019-02-17T08:32:57.579Z,17.53
2019-02-17T08:37:03.314Z,17.83
2019-02-17T08:41:08.210Z,14.03
2019-02-17T08:45:13.118Z,14.73
2019-02-17T08:49:18.037Z,16.67
2019-02-17T08:53:22.926Z,16.70
2019-02-17T08:57:27.848Z,17.03
2019-02-17T09:01:32.752Z,16.17
2019-02-17T09:05:44.206Z,17.67
2019-02-17T09:09:44.285Z,17.60
2019-02-17T09:13:49.192Z,16.53
2019-02-17T09:17:54.098Z,17.67
2019-02-17T09:21:59.004Z,17.90
2019-02-17T09:26:03.912Z,17.07
2019-02-17T09:30:14.323Z,17.00
2019-02-17T09:34:19.221Z,17.27
2019-02-17T09:38:24.121Z,17.73
2019-02-17T09:42:29.024Z,17.83
2019-02-17T09:46:33.929Z,17.40
2019-02-17T09:50:38.830Z,18.40
2019-02-17T09:54:43.738Z,17.70
2019-02-17T09:58:48.640Z,17.03
2019-02-17T10:02:53.542Z,18.20
2019-02-17T10:06:58.461Z,17.47
2019-02-17T10:11:03.358Z,17.53
2019-02-17T10:15:11.098Z,19.17
2019-02-17T10:19:16.013Z,17.40
2019-02-17T10:23:20.917Z,17.10
2019-02-17T10:27:25.833Z,18.27
2019-02-17T10:31:30.730Z,17.47
2019-02-17T10:35:35.665Z,15.40
2019-02-17T10:39:40.602Z,16.13
2019-02-17T10:43:45.525Z,16.30
2019-02-17T10:47:50.436Z,15.90
2019-02-17T10:51:55.344Z,15.57
2019-02-17T10:56:00.256Z,15.77
2019-02-17T11:00:09.857Z,17.60
2019-02-17T11:04:14.770Z,15.83
2019-02-17T11:08:19.685Z,12.93
2019-02-17T11:12:24.583Z,12.60
2019-02-17T11:16:29.500Z,14.90
2019-02-17T11:20:34.417Z,14.50
2019-02-17T11:24:39.318Z,14.50
2019-02-17T11:28:44.225Z,13.17
2019-02-17T11:32:57.540Z,12.07
2019-02-17T11:37:01.587Z,12.33
2019-02-17T11:41:06.574Z,12.33
2019-02-17T11:45:17.147Z,11.63
2019-02-17T11:49:22.084Z,12.03
2019-02-17T11:53:26.977Z,11.80
2019-02-17T11:57:31.903Z,11.47
2019-02-17T12:01:36.818Z,11.40
2019-02-17T12:05:41.725Z,10.83
2019-02-17T12:09:46.645Z,10.40
2019-02-17T12:13:51.554Z,10.93
2019-02-17T12:17:56.475Z,12.30
2019-02-17T12:22:05.471Z,10.80
2019-02-17T12:26:12.021Z,9.20
2019-02-17T12:30:17.000Z,13.00
2019-02-17T12:34:21.910Z,11.00
2019-02-17T12:38:26.823Z,11.30
2019-02-17T12:42:31.742Z,10.93
2019-02-17T12:46:36.658Z,11.17
2019-02-17T12:50:41.569Z,11.07
2019-02-17T12:54:46.470Z,12.27
2019-02-17T12:58:51.391Z,12.13
2019-02-17T13:02:56.298Z,12.37
2019-02-17T13:07:01.211Z,11.93
2019-02-17T13:11:06.121Z,12.73
2019-02-17T13:15:12.781Z,12.67
2019-02-17T13:19:17.700Z,11.27
2019-02-17T13:23:22.932Z,11.70
2019-02-17T13:27:27.839Z,11.20
2019-02-17T13:31:32.757Z,10.73
2019-02-17T13:35:37.683Z,10.47
2019-02-17T13:39:43.550Z,11.40
2019-02-17T13:43:48.470Z,10.43
2019-02-17T13:47:53.380Z,10.50
2019-02-17T13:51:58.282Z,10.57
2019-02-17T13:56:03.195Z,9.90
2019-02-17T14:00:13.643Z,10.90
2019-02-17T14:04:18.556Z,10.30
2019-02-17T14:08:23.463Z,8.87
2019-02-17T14:12:28.365Z,9.23
2019-02-17T14:16:33.270Z,8.90
2019-02-17T14:20:38.174Z,10.03
2019-02-17T14:24:44.146Z,8.97
2019-02-17T14:28:49.051Z,9.30
2019-02-17T14:32:53.957Z,7.90
2019-02-17T14:36:58.868Z,9.80
2019-02-17T14:41:03.774Z,10.37
2019-02-17T14:45:15.786Z,8.83
2019-02-17T14:49:20.705Z,8.63
2019-02-17T14:53:25.605Z,9.93
2019-02-17T14:57:30.502Z,8.90
2019-02-17T15:01:36.380Z,10.20
2019-02-17T15:05:41.297Z,10.60
2019-02-17T15:09:46.198Z,9.13
2019-02-17T15:13:51.106Z,9.50
2019-02-17T15:17:56.013Z,9.50
2019-02-17T15:22:00.907Z,8.90
2019-02-17T15:26:05.822Z,8.73
2019-02-17T15:30:18.072Z,9.50
2019-02-17T15:34:24.223Z,8.87
2019-02-17T15:38:29.116Z,7.77
2019-02-17T15:42:34.021Z,8.47
2019-02-17T15:46:38.921Z,8.00
2019-02-17T15:50:43.831Z,8.23
2019-02-17T15:54:48.741Z,8.07
2019-02-17T15:58:53.629Z,8.07
2019-02-17T16:02:58.532Z,7.80
2019-02-17T16:07:03.435Z,7.93
2019-02-17T16:11:08.335Z,7.57
2019-02-17T16:15:22.208Z,9.20
2019-02-17T16:19:27.124Z,8.53
2019-02-17T16:23:32.016Z,10.17
2019-02-17T16:27:36.934Z,28.50
2019-02-17T16:31:41.843Z,12.23
2019-02-17T16:35:47.035Z,11.90
2019-02-17T16:39:51.941Z,18.80
2019-02-17T16:43:56.843Z,11.27
2019-02-17T16:48:01.756Z,9.70
2019-02-17T16:52:06.655Z,10.07
2019-02-17T16:56:11.566Z,8.73
2019-02-17T17:00:24.999Z,9.17
2019-02-17T17:04:29.892Z,9.70
2019-02-17T17:08:34.808Z,8.57
2019-02-17T17:12:40.183Z,8.03
2019-02-17T17:16:45.091Z,8.07
2019-02-17T17:20:49.999Z,8.70
2019-02-17T17:24:54.905Z,9.77
2019-02-17T17:28:59.809Z,11.57
2019-02-17T17:33:04.724Z,10.77
2019-02-17T17:37:09.643Z,10.90
2019-02-17T17:41:14.557Z,10.67
2019-02-17T17:45:22.939Z,8.77
2019-02-17T17:49:27.825Z,7.53
2019-02-17T17:53:32.730Z,8.30
2019-02-17T17:57:37.694Z,7.40
2019-02-17T18:01:42.591Z,8.00
2019-02-17T18:05:47.490Z,7.30
2019-02-17T18:09:52.396Z,7.23
2019-02-17T18:13:57.297Z,7.67
2019-02-17T18:18:02.194Z,8.27
2019-02-17T18:22:07.097Z,8.73
2019-02-17T18:26:11.989Z,7.27
2019-02-17T18:30:20.866Z,8.03
2019-02-17T18:34:25.768Z,7.53
2019-02-17T18:38:31.638Z,7.53
2019-02-17T18:42:36.545Z,6.80
2019-02-17T18:46:41.442Z,7.87
2019-02-17T18:50:46.352Z,8.40
2019-02-17T18:54:51.259Z,7.77
2019-02-17T18:58:56.167Z,7.73
2019-02-17T19:03:01.070Z,7.80
2019-02-17T19:07:05.968Z,8.10
2019-02-17T19:11:10.871Z,7.93
2019-02-17T19:15:19.811Z,8.80
2019-02-17T19:19:24.708Z,7.20
2019-02-17T19:23:29.626Z,6.93
2019-02-17T19:27:34.546Z,7.20
2019-02-17T19:31:39.447Z,6.97
2019-02-17T19:35:44.351Z,7.50
2019-02-17T19:39:49.262Z,8.07
2019-02-17T19:43:54.170Z,7.40
2019-02-17T19:47:59.068Z,8.40
2019-02-17T19:52:03.969Z,7.97
2019-02-17T19:56:08.870Z,6.77
2019-02-17T20:00:17.826Z,7.47
2019-02-17T20:04:24.371Z,7.90
2019-02-17T20:08:29.260Z,7.43
2019-02-17T20:12:34.164Z,6.93
2019-02-17T20:16:39.064Z,6.90
2019-02-17T20:20:43.960Z,7.27
2019-02-17T20:24:48.874Z,6.20
2019-02-17T20:28:57.246Z,7.00
2019-02-17T20:33:00.396Z,6.53
2019-02-17T20:37:05.278Z,6.60
2019-02-17T20:41:10.199Z,6.63
2019-02-17T20:45:15.102Z,7.47
2019-02-17T20:49:19.996Z,6.80
2019-02-17T20:53:24.901Z,6.97
2019-02-17T20:57:29.813Z,7.43
2019-02-17T21:01:34.708Z,7.43
2019-02-17T21:05:39.616Z,8.40
2019-02-17T21:09:45.655Z,7.80
2019-02-17T21:13:50.552Z,8.17
2019-02-17T21:17:55.515Z,8.07
2019-02-17T21:22:00.407Z,7.83
2019-02-17T21:26:05.321Z,8.40
2019-02-17T21:30:20.061Z,8.80
2019-02-17T21:34:24.951Z,8.00
2019-02-17T21:38:29.839Z,8.00
2019-02-17T21:42:35.808Z,9.57
2019-02-17T21:46:40.707Z,9.17
2019-02-17T21:50:45.603Z,11.50
2019-02-17T21:54:50.491Z,8.83
2019-02-17T21:58:55.383Z,7.70
2019-02-17T22:03:00.293Z,10.70
2019-02-17T22:07:05.191Z,10.53
2019-02-17T22:11:10.083Z,9.33
2019-02-17T22:15:22.853Z,8.33
2019-02-17T22:19:27.746Z,9.27
2019-02-17T22:23:32.643Z,9.43
2019-02-17T22:27:37.586Z,10.60
2019-02-17T22:31:42.450Z,14.87
2019-02-17T22:35:47.344Z,14.23
2019-02-17T22:39:52.253Z,12.73
2019-02-17T22:43:57.151Z,11.63
2019-02-17T22:48:02.057Z,9.93
2019-02-17T22:52:06.952Z,9.53
2019-02-17T22:56:11.836Z,11.63
2019-02-17T23:00:30.325Z,11.10
2019-02-17T23:04:35.697Z,11.00
2019-02-17T23:08:40.599Z,10.73
2019-02-17T23:12:45.505Z,11.70
2019-02-17T23:16:50.410Z,11.60
2019-02-17T23:20:55.308Z,11.50
2019-02-17T23:25:00.379Z,11.70
2019-02-17T23:29:05.282Z,11.57
2019-02-17T23:33:10.184Z,11.97
2019-02-17T23:37:15.090Z,12.23
2019-02-17T23:41:19.984Z,11.00
2019-02-17T23:45:24.883Z,9.50
2019-02-17T23:49:29.774Z,9.53
2019-02-17T23:53:34.680Z,10.90
2019-02-17T23:57:39.651Z,9.43
